Time;durP1;ratioP1;P1;durP2;ratioP2;P2;SDS_P1;SDS_P2;PMS_P1;PMS_P2;Temp;Humidity;BMP_temperature;BMP_pressure;BME280_temperature;BME280_humidity;BME280_pressure;Samples;Min_cycle;Max_cycle;Signal;HPM_P1;HPM_P2
2022/12/27 00:02:44;;;;;;;3.10;1.40;;;;;9.40;99773.00;;;;16714975;28;20229;-46
2022/12/27 00:10:47;;;;;;;1.20;1.10;;;;;9.20;99763.00;;;;16680437;28;20305;-45
2022/12/27 00:18:51;;;;;;;2.17;1.90;;;;;9.10;99775.00;;;;16676207;28;20222;-45
2022/12/27 00:26:53;;;;;;;4.10;1.57;;;;;9.10;99783.00;;;;16710221;28;20730;-45
2022/12/27 00:34:58;;;;;;;1.63;1.30;;;;;9.10;99794.00;;;;16683489;28;20257;-46
2022/12/27 00:43:00;;;;;;;1.50;1.27;;;;;9.00;99821.00;;;;16707846;28;20310;-46
2022/12/27 00:51:05;;;;;;;1.97;1.50;;;;;9.00;99841.00;;;;16677581;28;20218;-46
2022/12/27 00:59:10;;;;;;;2.57;1.50;;;;;8.80;99865.00;;;;16686914;28;20245;-45
2022/12/27 01:07:14;;;;;;;1.57;1.40;;;;;8.90;99889.00;;;;16699527;28;20217;-45
2022/12/27 01:15:16;;;;;;;2.00;1.80;;;;;9.10;99896.00;;;;16704846;28;20218;-45
2022/12/27 01:23:20;;;;;;;2.80;1.50;;;;;8.90;99909.00;;;;16689346;28;20217;-45
2022/12/27 01:31:24;;;;;;;2.10;1.77;;;;;8.40;99937.00;;;;16700483;28;20626;-46
2022/12/27 01:39:28;;;;;;;1.50;1.40;;;;;8.30;99939.00;;;;16677005;28;20234;-45
2022/12/27 01:47:35;;;;;;;2.20;1.70;;;;;8.00;99946.00;;;;16684859;28;20222;-46
2022/12/27 01:55:43;;;;;;;8.40;2.57;;;;;7.80;99952.00;;;;16660260;28;20312;-46
2022/12/27 02:03:48;;;;;;;1.83;1.13;;;;;7.70;99975.00;;;;16689711;28;20205;-46
2022/12/27 02:11:55;;;;;;;1.93;1.30;;;;;7.40;99982.00;;;;16674283;28;20819;-46
2022/12/27 02:20:03;;;;;;;2.20;1.20;;;;;7.20;99999.00;;;;16672217;28;20603;-46
2022/12/27 02:28:18;;;;;;;2.10;1.47;;;;;6.80;99996.00;;;;16689861;28;20267;-46
2022/12/27 02:36:25;;;;;;;3.70;2.10;;;;;6.60;100020.00;;;;16660155;28;20335;-46
2022/12/27 02:53:06;;;;;;;2.10;1.70;;;;;6.40;100023.00;;;;16684703;28;20204;-46
2022/12/27 03:18:20;;;;;;;2.10;1.83;;;;;6.00;100042.00;;;;16637567;28;20241;-46
2022/12/27 03:26:25;;;;;;;2.57;2.03;;;;;5.20;100054.00;;;;16687942;28;20221;-46
2022/12/27 03:34:31;;;;;;;3.87;1.90;;;;;5.10;100050.00;;;;16678050;28;20470;-46
2022/12/27 03:51:03;;;;;;;1.90;1.57;;;;;6.00;100055.00;;;;16675756;28;20303;-46
2022/12/27 03:59:08;;;;;;;4.37;2.07;;;;;6.00;100053.00;;;;16703100;28;20236;-46
2022/12/27 04:07:12;;;;;;;9.50;5.00;;;;;5.70;100061.00;;;;16692028;28;20217;-46
2022/12/27 04:56:59;;;;;;;2.00;1.80;;;;;5.80;100070.00;;;;16671591;28;20548;-46
2022/12/27 05:05:03;;;;;;;3.30;1.83;;;;;4.80;100088.00;;;;16693847;28;20224;-46
2022/12/27 05:21:26;;;;;;;2.53;2.20;;;;;4.70;100097.00;;;;16743868;22;20229;-46
2022/12/27 05:29:34;;;;;;;2.77;2.07;;;;;4.80;100106.00;;;;16614306;28;20239;-47
2022/12/27 05:37:38;;;;;;;6.03;2.83;;;;;5.50;100110.00;;;;16601697;28;20228;-47
2022/12/27 05:45:43;;;;;;;3.00;2.80;;;;;5.80;100112.00;;;;16614076;28;20218;-47
2022/12/27 05:53:49;;;;;;;3.07;2.50;;;;;6.20;100114.00;;;;16628696;28;20299;-47
2022/12/27 06:01:52;;;;;;;3.73;3.43;;;;;6.50;100120.00;;;;16629012;28;20231;-47
2022/12/27 06:09:55;;;;;;;3.83;3.03;;;;;4.70;100135.00;;;;16632403;28;20212;-47
2022/12/27 06:17:59;;;;;;;3.90;2.30;;;;;4.50;100137.00;;;;16636049;28;20236;-47
2022/12/27 06:26:06;;;;;;;3.27;3.07;;;;;5.30;100133.00;;;;16634404;28;20215;-47
2022/12/27 06:34:11;;;;;;;4.47;3.60;;;;;5.90;100130.00;;;;16627537;28;20215;-48
2022/12/27 06:42:14;;;;;;;3.47;3.17;;;;;6.20;100129.00;;;;16639868;28;20232;-47
2022/12/27 06:50:17;;;;;;;5.43;3.90;;;;;5.30;100149.00;;;;16638992;28;20300;-46
2022/12/27 06:58:21;;;;;;;10.37;4.07;;;;;6.00;100153.00;;;;16639342;28;20648;-47
2022/12/27 07:06:25;;;;;;;3.93;3.00;;;;;6.70;100149.00;;;;16629039;28;20196;-47
2022/12/27 07:14:29;;;;;;;5.10;4.03;;;;;5.20;100172.00;;;;16618655;28;20711;-46
2022/12/27 07:22:32;;;;;;;4.63;4.00;;;;;4.60;100183.00;;;;16650711;28;20301;-47
2022/12/27 07:30:36;;;;;;;3.93;3.53;;;;;4.70;100179.00;;;;16633323;28;20218;-47
2022/12/27 07:38:38;;;;;;;8.00;6.33;;;;;5.20;100189.00;;;;16619159;28;20237;-46
2022/12/27 07:46:42;;;;;;;4.87;4.43;;;;;5.20;100176.00;;;;16619778;28;20214;-47
2022/12/27 07:54:45;;;;;;;6.90;5.23;;;;;5.00;100187.00;;;;16633395;28;20221;-47
2022/12/27 08:02:48;;;;;;;5.70;4.67;;;;;5.10;100183.00;;;;16636384;28;20231;-47
2022/12/27 08:10:51;;;;;;;5.27;4.43;;;;;5.30;100181.00;;;;16594868;28;20630;-47
2022/12/27 08:18:55;;;;;;;9.40;7.50;;;;;6.40;100160.00;;;;16596261;28;20225;-47
2022/12/27 08:26:58;;;;;;;7.03;5.07;;;;;6.40;100150.00;;;;16592932;28;20722;-47
2022/12/27 08:35:01;;;;;;;8.77;6.70;;;;;7.10;100161.00;;;;16588676;28;20716;-47
2022/12/27 08:43:04;;;;;;;4.90;3.40;;;;;7.50;100156.00;;;;16594461;28;20369;-47
2022/12/27 08:51:08;;;;;;;3.77;3.10;;;;;7.80;100152.00;;;;16599521;28;20603;-48
2022/12/27 08:59:11;;;;;;;6.00;3.60;;;;;8.10;100150.00;;;;16609281;28;20679;-47
2022/12/27 09:07:15;;;;;;;4.40;3.90;;;;;8.30;100161.00;;;;16589023;28;20191;-47
2022/12/27 09:15:17;;;;;;;4.73;3.00;;;;;8.30;100153.00;;;;16590241;28;20310;-48
2022/12/27 09:23:21;;;;;;;3.50;3.20;;;;;8.50;100162.00;;;;16595516;28;20806;-48
2022/12/27 09:31:24;;;;;;;3.80;3.50;;;;;8.60;100164.00;;;;16597814;28;20820;-48
2022/12/27 09:39:28;;;;;;;3.30;2.87;;;;;9.10;100164.00;;;;16611387;28;20600;-48
2022/12/27 09:47:35;;;;;;;14.93;9.87;;;;;9.60;100164.00;;;;16600388;28;20224;-49
2022/12/27 09:55:42;;;;;;;6.30;3.50;;;;;9.60;100161.00;;;;16594512;28;20238;-48
2022/12/27 10:03:44;;;;;;;3.57;3.27;;;;;9.50;100159.00;;;;16583624;28;20249;-49
2022/12/27 10:11:53;;;;;;;6.97;4.00;;;;;9.50;100159.00;;;;16590252;28;20210;-48
2022/12/27 10:20:05;;;;;;;4.07;3.70;;;;;9.90;100156.00;;;;16599736;28;20225;-48
2022/12/27 10:28:16;;;;;;;7.57;4.50;;;;;10.60;100144.00;;;;16611250;28;20218;-49
2022/12/27 10:36:21;;;;;;;3.50;3.20;;;;;10.80;100136.00;;;;16611136;28;20598;-48
2022/12/27 10:44:25;;;;;;;3.90;3.50;;;;;11.10;100134.00;;;;16611564;28;20230;-49
2022/12/27 10:52:31;;;;;;;8.43;3.33;;;;;12.00;100128.00;;;;16622261;28;20218;-49
2022/12/27 11:00:37;;;;;;;3.87;2.90;;;;;12.60;100113.00;;;;16624042;28;20232;-48
2022/12/27 11:08:40;;;;;;;13.63;9.20;;;;;13.00;100100.00;;;;16600005;28;20223;-48
2022/12/27 11:16:45;;;;;;;3.17;2.73;;;;;13.20;100094.00;;;;16601827;28;20210;-49
2022/12/27 11:24:49;;;;;;;3.80;3.07;;;;;13.30;100095.00;;;;16595574;28;20263;-49
2022/12/27 11:32:53;;;;;;;2.43;1.70;;;;;13.60;100091.00;;;;16606879;28;20587;-49
2022/12/27 11:40:58;;;;;;;3.83;1.80;;;;;13.10;100086.00;;;;16618824;28;20231;-48
2022/12/27 11:49:06;;;;;;;1.60;1.30;;;;;13.50;100080.00;;;;16608072;28;20223;-49
2022/12/27 11:57:15;;;;;;;1.80;1.57;;;;;14.60;100063.00;;;;16611659;28;20303;-49
2022/12/27 12:05:57;;;;;;;2.50;1.43;;;;;14.20;100074.00;;;;16608049;28;20784;-49
2022/12/27 12:14:26;;;;;;;1.87;1.43;;;;;13.90;100057.00;;;;16612315;28;20223;-49
2022/12/27 12:22:48;;;;;;;3.40;1.40;;;;;14.50;100058.00;;;;16621686;28;20230;-49
2022/12/27 12:30:59;;;;;;;2.50;1.27;;;;;13.90;100058.00;;;;16599915;28;20246;-48
2022/12/27 12:39:10;;;;;;;2.10;1.57;;;;;12.60;100068.00;;;;16598645;28;20596;-47
2022/12/27 12:47:23;;;;;;;1.57;1.30;;;;;14.40;100069.00;;;;16599060;28;20853;-49
2022/12/27 12:55:42;;;;;;;2.93;1.40;;;;;15.20;100055.00;;;;16599839;28;20208;-49
2022/12/27 13:04:02;;;;;;;3.17;1.67;;;;;15.20;100046.00;;;;16606735;28;20231;-49
2022/12/27 13:12:09;;;;;;;3.57;1.53;;;;;15.70;100037.00;;;;16599561;28;20219;-49
2022/12/27 13:20:24;;;;;;;5.10;1.83;;;;;15.80;100037.00;;;;16610285;28;20245;-49
2022/12/27 13:28:35;;;;;;;1.93;1.37;;;;;13.50;100041.00;;;;16612775;28;20712;-49
2022/12/27 13:36:45;;;;;;;3.77;2.00;;;;;13.50;100039.00;;;;16587149;28;20200;-49
2022/12/27 13:45:01;;;;;;;5.27;2.17;;;;;13.60;100036.00;;;;16586111;28;20723;-49
2022/12/27 13:53:27;;;;;;;4.50;2.43;;;;;12.80;100038.00;;;;16661873;22;20231;-77
2022/12/27 14:01:46;;;;;;;3.27;1.80;;;;;13.10;100026.00;;;;16634278;28;20237;-77
2022/12/27 14:10:11;;;;;;;5.33;2.00;;;;;13.30;100027.00;;;;16648333;28;20225;-77
2022/12/27 14:18:25;;;;;;;5.90;1.80;;;;;13.70;100021.00;;;;16661576;28;20234;-77
2022/12/27 14:27:01;;;;;;;4.83;2.20;;;;;13.60;100032.00;;;;16632697;28;20233;-77
2022/12/27 14:35:31;;;;;;;3.90;1.70;;;;;13.50;100046.00;;;;16639673;28;20218;-77
2022/12/27 14:44:19;;;;;;;4.37;1.60;;;;;13.10;100044.00;;;;16658559;28;20222;-78
2022/12/27 14:52:55;;;;;;;7.10;3.60;;;;;12.90;100041.00;;;;16657137;28;20236;-78
2022/12/27 15:01:05;;;;;;;25.27;17.30;;;;;12.70;100050.00;;;;16624187;28;20326;-77
2022/12/27 15:09:13;;;;;;;23.43;15.60;;;;;12.50;100044.00;;;;16651091;28;20216;-79
2022/12/27 15:17:26;;;;;;;5.70;3.97;;;;;12.30;100060.00;;;;16664250;28;20288;-77
2022/12/27 15:25:42;;;;;;;7.80;7.10;;;;;12.00;100053.00;;;;16656305;28;20235;-79
2022/12/27 15:34:00;;;;;;;3.27;2.97;;;;;11.60;100035.00;;;;16644281;28;20225;-77
2022/12/27 15:42:11;;;;;;;6.67;4.43;;;;;11.40;100026.00;;;;16659018;28;20732;-77
2022/12/27 15:50:46;;;;;;;3.97;3.40;;;;;9.70;100037.00;;;;16652968;28;20230;-77
2022/12/27 15:59:21;;;;;;;6.40;4.30;;;;;8.30;100055.00;;;;16621375;28;20313;-77
2022/12/27 16:07:44;;;;;;;8.27;5.20;;;;;7.40;100058.00;;;;16648637;28;20222;-76
2022/12/27 16:15:52;;;;;;;7.43;4.03;;;;;7.50;100065.00;;;;16660023;28;20692;-76
2022/12/27 16:24:06;;;;;;;5.40;3.40;;;;;7.20;100064.00;;;;16657150;28;20700;-76
2022/12/27 16:32:21;;;;;;;5.17;4.07;;;;;6.90;100070.00;;;;16652908;28;20232;-76
2022/12/27 16:48:41;;;;;;;5.13;4.10;;;;;6.80;100070.00;;;;16520668;28;20218;-48
2022/12/27 16:56:46;;;;;;;9.50;4.90;;;;;6.90;100061.00;;;;16458529;28;20204;-48
2022/12/27 17:04:57;;;;;;;6.23;4.13;;;;;6.70;100074.00;;;;16456847;28;20309;-47
2022/12/27 17:13:03;;;;;;;5.83;4.77;;;;;6.80;100058.00;;;;16455283;28;20563;-48
2022/12/27 17:21:12;;;;;;;10.90;6.13;;;;;6.80;100052.00;;;;16455630;28;20227;-47
2022/12/27 17:29:38;;;;;;;8.27;5.97;;;;;6.90;100040.00;;;;16459938;28;20727;-46
2022/12/27 17:37:45;;;;;;;7.40;5.50;;;;;6.30;100023.00;;;;16455739;28;20212;-46
2022/12/27 17:45:52;;;;;;;9.10;8.20;;;;;6.40;100025.00;;;;16454740;28;20479;-47
2022/12/27 18:02:19;;;;;;;11.70;7.30;;;;;6.00;100012.00;;;;16450152;28;20269;-47
2022/12/27 18:10:25;;;;;;;11.90;7.53;;;;;5.70;100031.00;;;;16453303;28;20288;-47
2022/12/27 18:18:29;;;;;;;5.40;4.50;;;;;5.40;100025.00;;;;16448134;28;20597;-46
2022/12/27 18:26:35;;;;;;;16.37;8.57;;;;;5.60;100014.00;;;;16450481;28;20222;-47
2022/12/27 18:34:42;;;;;;;8.37;5.90;;;;;5.40;100010.00;;;;16450366;28;20230;-47
2022/12/27 18:42:50;;;;;;;8.03;6.47;;;;;5.00;100009.00;;;;16453147;28;20226;-47
2022/12/27 18:50:53;;;;;;;13.30;7.63;;;;;4.80;100006.00;;;;16447620;28;20292;-47
2022/12/27 18:59:05;;;;;;;6.37;5.77;;;;;4.80;99992.00;;;;16449011;28;20229;-47
2022/12/27 19:07:09;;;;;;;15.47;9.47;;;;;4.70;99988.00;;;;16446036;28;20225;-45
2022/12/27 19:15:19;;;;;;;10.93;7.27;;;;;5.20;99975.00;;;;16454695;28;20224;-47
2022/12/27 19:23:32;;;;;;;7.77;5.87;;;;;4.80;99990.00;;;;16459624;28;20237;-46
2022/12/27 19:31:38;;;;;;;7.23;6.00;;;;;4.50;99990.00;;;;16458952;28;20229;-47
2022/12/27 19:39:42;;;;;;;12.73;6.70;;;;;4.40;99966.00;;;;16447025;28;20237;-46
2022/12/27 19:47:47;;;;;;;9.73;7.33;;;;;4.30;99980.00;;;;16456592;28;20648;-45
2022/12/27 19:55:49;;;;;;;11.73;8.53;;;;;4.40;99948.00;;;;16636780;22;20613;-68
2022/12/27 20:03:53;;;;;;;8.50;6.67;;;;;4.30;99942.00;;;;16697160;28;20234;-67
2022/12/27 20:11:56;;;;;;;6.80;6.10;;;;;4.30;99932.00;;;;16700299;28;20228;-67
2022/12/27 20:19:59;;;;;;;12.30;9.07;;;;;4.20;99939.00;;;;16686014;28;20315;-66
2022/12/27 20:28:02;;;;;;;6.80;6.10;;;;;4.30;99934.00;;;;16688453;28;20214;-67
2022/12/27 20:36:07;;;;;;;10.73;5.90;;;;;4.30;99942.00;;;;16695514;28;20219;-68
2022/12/27 20:44:10;;;;;;;8.33;6.77;;;;;4.40;99925.00;;;;16709625;28;20227;-68
2022/12/27 20:52:14;;;;;;;15.47;10.40;;;;;4.60;99911.00;;;;16684162;28;20272;-67
2022/12/27 21:00:17;;;;;;;9.47;7.70;;;;;4.70;99907.00;;;;16705747;28;20591;-66
2022/12/27 21:08:21;;;;;;;10.70;8.90;;;;;4.70;99906.00;;;;16691971;28;20637;-69
2022/12/27 21:16:24;;;;;;;14.77;11.57;;;;;4.70;99904.00;;;;16702584;28;20240;-69
2022/12/27 21:24:28;;;;;;;11.53;10.33;;;;;4.80;99896.00;;;;16692998;28;20682;-69
2022/12/27 21:32:31;;;;;;;21.87;14.43;;;;;4.60;99900.00;;;;16698879;28;20681;-68
2022/12/27 21:40:34;;;;;;;17.50;13.57;;;;;4.70;99888.00;;;;16717317;28;20269;-69
2022/12/27 21:48:37;;;;;;;15.03;12.30;;;;;4.50;99904.00;;;;16698526;28;20597;-68
2022/12/27 21:56:41;;;;;;;13.60;9.53;;;;;3.90;99906.00;;;;16675400;28;20672;-68
2022/12/27 22:04:43;;;;;;;11.33;8.73;;;;;3.90;99902.00;;;;16692546;28;20253;-68
2022/12/27 22:12:47;;;;;;;12.03;9.70;;;;;4.10;99880.00;;;;16715298;28;20277;-68
2022/12/27 22:20:50;;;;;;;15.53;10.10;;;;;3.90;99885.00;;;;16676819;28;20245;-67
2022/12/27 22:28:54;;;;;;;11.43;9.77;;;;;4.60;99871.00;;;;16711152;28;21360;-68
2022/12/27 22:36:57;;;;;;;15.80;10.90;;;;;4.90;99861.00;;;;16715235;28;20292;-67
2022/12/27 22:45:01;;;;;;;15.33;12.67;;;;;5.50;99838.00;;;;16706139;28;20369;-69
2022/12/27 22:53:04;;;;;;;15.60;12.20;;;;;5.10;99822.00;;;;16717883;28;20215;-69
2022/12/27 23:01:12;;;;;;;12.03;10.83;;;;;5.30;99830.00;;;;16714088;28;20222;-67
2022/12/27 23:09:14;;;;;;;13.60;12.17;;;;;5.90;99820.00;;;;16707810;28;20591;-69
2022/12/27 23:17:18;;;;;;;14.50;13.00;;;;;6.10;99821.00;;;;16690668;28;20280;-70
2022/12/27 23:25:21;;;;;;;13.13;9.00;;;;;5.90;99813.00;;;;16688391;22;20251;-47
2022/12/27 23:33:24;;;;;;;11.73;10.30;;;;;5.70;99805.00;;;;16638331;28;20218;-47
2022/12/27 23:41:27;;;;;;;17.83;14.50;;;;;5.40;99803.00;;;;16651576;28;20219;-47
2022/12/27 23:49:30;;;;;;;12.43;10.93;;;;;5.60;99810.00;;;;16644725;28;20621;-46
2022/12/27 23:57:33;;;;;;;14.73;13.27;;;;;6.40;99790.00;;;;16626436;28;20203;-47
